sensor_id;sensor_type;location;lat;lon;timestamp;P1;durP1;ratioP1;P2;durP2;ratioP2
61460;SDS011;47325;50.506;4.472;2022-11-20T00:01:57;24.90;;;14.20;;
61460;SDS011;47325;50.506;4.472;2022-11-20T00:07:40;24.30;;;13.20;;
61460;SDS011;47325;50.506;4.472;2022-11-20T00:13:24;25.60;;;13.70;;
61460;SDS011;47325;50.506;4.472;2022-11-20T00:19:07;26.90;;;14.30;;
61460;SDS011;47325;50.506;4.472;2022-11-20T00:24:50;24.50;;;14.00;;
61460;SDS011;47325;50.506;4.472;2022-11-20T00:30:33;26.00;;;14.10;;
61460;SDS011;47325;50.506;4.472;2022-11-20T00:36:16;23.40;;;14.20;;
61460;SDS011;47325;50.506;4.472;2022-11-20T00:42:00;25.30;;;14.00;;
61460;SDS011;47325;50.506;4.472;2022-11-20T00:47:43;26.80;;;14.10;;
61460;SDS011;47325;50.506;4.472;2022-11-20T00:53:27;24.90;;;13.60;;
61460;SDS011;47325;50.506;4.472;2022-11-20T00:59:10;24.30;;;13.80;;
61460;SDS011;47325;50.506;4.472;2022-11-20T01:04:53;25.60;;;13.60;;
61460;SDS011;47325;50.506;4.472;2022-11-20T01:10:36;24.80;;;14.10;;
61460;SDS011;47325;50.506;4.472;2022-11-20T01:16:20;22.50;;;12.80;;
61460;SDS011;47325;50.506;4.472;2022-11-20T01:22:03;24.00;;;13.30;;
61460;SDS011;47325;50.506;4.472;2022-11-20T01:27:47;22.70;;;12.90;;
61460;SDS011;47325;50.506;4.472;2022-11-20T01:33:32;21.10;;;12.50;;
61460;SDS011;47325;50.506;4.472;2022-11-20T01:39:16;21.80;;;12.20;;
61460;SDS011;47325;50.506;4.472;2022-11-20T01:45:00;22.70;;;12.40;;
61460;SDS011;47325;50.506;4.472;2022-11-20T01:50:43;22.40;;;12.30;;
61460;SDS011;47325;50.506;4.472;2022-11-20T01:56:27;23.10;;;12.30;;
61460;SDS011;47325;50.506;4.472;2022-11-20T02:02:11;21.50;;;12.20;;
61460;SDS011;47325;50.506;4.472;2022-11-20T02:07:54;21.50;;;12.10;;
61460;SDS011;47325;50.506;4.472;2022-11-20T02:13:39;22.00;;;12.10;;
61460;SDS011;47325;50.506;4.472;2022-11-20T02:19:24;22.40;;;12.50;;
61460;SDS011;47325;50.506;4.472;2022-11-20T02:25:09;20.70;;;11.30;;
61460;SDS011;47325;50.506;4.472;2022-11-20T02:30:52;20.50;;;11.50;;
61460;SDS011;47325;50.506;4.472;2022-11-20T02:36:35;21.20;;;12.00;;
61460;SDS011;47325;50.506;4.472;2022-11-20T02:42:20;23.70;;;12.20;;
61460;SDS011;47325;50.506;4.472;2022-11-20T02:48:03;20.00;;;11.80;;
61460;SDS011;47325;50.506;4.472;2022-11-20T02:53:46;22.90;;;12.10;;
61460;SDS011;47325;50.506;4.472;2022-11-20T02:59:29;21.10;;;11.80;;
61460;SDS011;47325;50.506;4.472;2022-11-20T03:05:12;21.40;;;11.40;;
61460;SDS011;47325;50.506;4.472;2022-11-20T03:10:55;24.10;;;12.20;;
61460;SDS011;47325;50.506;4.472;2022-11-20T03:16:38;22.90;;;11.90;;
61460;SDS011;47325;50.506;4.472;2022-11-20T03:22:21;21.20;;;11.50;;
61460;SDS011;47325;50.506;4.472;2022-11-20T03:28:04;21.60;;;11.70;;
61460;SDS011;47325;50.506;4.472;2022-11-20T03:33:47;22.30;;;11.80;;
61460;SDS011;47325;50.506;4.472;2022-11-20T03:39:30;23.20;;;11.70;;
61460;SDS011;47325;50.506;4.472;2022-11-20T03:45:13;22.40;;;11.40;;
61460;SDS011;47325;50.506;4.472;2022-11-20T03:51:05;25.20;;;12.00;;
61460;SDS011;47325;50.506;4.472;2022-11-20T03:56:44;22.60;;;11.30;;
61460;SDS011;47325;50.506;4.472;2022-11-20T04:02:27;22.80;;;11.40;;
61460;SDS011;47325;50.506;4.472;2022-11-20T04:08:11;21.70;;;11.20;;
61460;SDS011;47325;50.506;4.472;2022-11-20T04:13:54;23.70;;;11.70;;
61460;SDS011;47325;50.506;4.472;2022-11-20T04:19:44;24.60;;;11.90;;
61460;SDS011;47325;50.506;4.472;2022-11-20T04:25:28;24.80;;;12.30;;
61460;SDS011;47325;50.506;4.472;2022-11-20T04:31:12;24.10;;;12.30;;
61460;SDS011;47325;50.506;4.472;2022-11-20T04:36:56;24.50;;;11.90;;
61460;SDS011;47325;50.506;4.472;2022-11-20T04:42:39;24.20;;;12.20;;
61460;SDS011;47325;50.506;4.472;2022-11-20T04:48:23;24.30;;;11.90;;
61460;SDS011;47325;50.506;4.472;2022-11-20T04:54:06;25.60;;;12.00;;
61460;SDS011;47325;50.506;4.472;2022-11-20T04:59:50;24.10;;;11.90;;
61460;SDS011;47325;50.506;4.472;2022-11-20T05:05:34;24.50;;;12.30;;
61460;SDS011;47325;50.506;4.472;2022-11-20T05:11:18;23.80;;;11.80;;
61460;SDS011;47325;50.506;4.472;2022-11-20T05:17:01;22.70;;;11.80;;
61460;SDS011;47325;50.506;4.472;2022-11-20T05:22:44;23.10;;;11.40;;
61460;SDS011;47325;50.506;4.472;2022-11-20T05:28:28;22.90;;;11.40;;
61460;SDS011;47325;50.506;4.472;2022-11-20T05:34:12;23.80;;;12.10;;
61460;SDS011;47325;50.506;4.472;2022-11-20T05:39:55;24.00;;;11.90;;
61460;SDS011;47325;50.506;4.472;2022-11-20T05:45:38;25.20;;;11.60;;
61460;SDS011;47325;50.506;4.472;2022-11-20T05:51:21;23.80;;;12.30;;
61460;SDS011;47325;50.506;4.472;2022-11-20T05:57:04;22.50;;;11.70;;
61460;SDS011;47325;50.506;4.472;2022-11-20T06:02:47;24.10;;;12.30;;
61460;SDS011;47325;50.506;4.472;2022-11-20T06:08:30;25.10;;;11.60;;
61460;SDS011;47325;50.506;4.472;2022-11-20T06:14:13;24.30;;;11.80;;
61460;SDS011;47325;50.506;4.472;2022-11-20T06:19:56;23.50;;;11.40;;
61460;SDS011;47325;50.506;4.472;2022-11-20T06:25:41;23.10;;;11.90;;
61460;SDS011;47325;50.506;4.472;2022-11-20T06:31:24;21.90;;;11.10;;
61460;SDS011;47325;50.506;4.472;2022-11-20T06:37:07;24.60;;;11.90;;
61460;SDS011;47325;50.506;4.472;2022-11-20T06:42:50;22.10;;;11.30;;
61460;SDS011;47325;50.506;4.472;2022-11-20T06:48:33;19.60;;;10.90;;
61460;SDS011;47325;50.506;4.472;2022-11-20T06:54:17;21.40;;;11.30;;
61460;SDS011;47325;50.506;4.472;2022-11-20T06:59:59;21.40;;;11.20;;
61460;SDS011;47325;50.506;4.472;2022-11-20T07:05:43;21.30;;;11.40;;
61460;SDS011;47325;50.506;4.472;2022-11-20T07:11:26;21.00;;;10.90;;
61460;SDS011;47325;50.506;4.472;2022-11-20T07:17:09;19.30;;;10.10;;
61460;SDS011;47325;50.506;4.472;2022-11-20T07:22:57;19.00;;;10.20;;
61460;SDS011;47325;50.506;4.472;2022-11-20T07:28:43;18.50;;;9.80;;
61460;SDS011;47325;50.506;4.472;2022-11-20T07:34:26;19.50;;;10.10;;
61460;SDS011;47325;50.506;4.472;2022-11-20T07:40:09;21.00;;;10.40;;
61460;SDS011;47325;50.506;4.472;2022-11-20T07:45:52;16.80;;;9.30;;
61460;SDS011;47325;50.506;4.472;2022-11-20T07:51:37;19.00;;;9.30;;
61460;SDS011;47325;50.506;4.472;2022-11-20T07:57:20;18.00;;;9.30;;
61460;SDS011;47325;50.506;4.472;2022-11-20T08:03:10;19.10;;;9.80;;
61460;SDS011;47325;50.506;4.472;2022-11-20T08:08:54;17.90;;;9.50;;
61460;SDS011;47325;50.506;4.472;2022-11-20T08:14:37;17.60;;;9.30;;
61460;SDS011;47325;50.506;4.472;2022-11-20T08:20:19;18.80;;;9.40;;
61460;SDS011;47325;50.506;4.472;2022-11-20T08:26:04;20.40;;;9.80;;
61460;SDS011;47325;50.506;4.472;2022-11-20T08:31:47;16.20;;;8.60;;
61460;SDS011;47325;50.506;4.472;2022-11-20T08:37:30;14.90;;;9.00;;
61460;SDS011;47325;50.506;4.472;2022-11-20T08:43:13;13.10;;;7.70;;
61460;SDS011;47325;50.506;4.472;2022-11-20T08:48:56;14.60;;;8.10;;
61460;SDS011;47325;50.506;4.472;2022-11-20T08:54:39;12.90;;;7.90;;
61460;SDS011;47325;50.506;4.472;2022-11-20T09:00:22;14.40;;;8.30;;
61460;SDS011;47325;50.506;4.472;2022-11-20T09:06:05;12.10;;;7.70;;
61460;SDS011;47325;50.506;4.472;2022-11-20T09:11:49;12.10;;;6.80;;
61460;SDS011;47325;50.506;4.472;2022-11-20T09:17:32;12.60;;;6.80;;
61460;SDS011;47325;50.506;4.472;2022-11-20T09:23:15;10.20;;;6.70;;
61460;SDS011;47325;50.506;4.472;2022-11-20T09:28:58;12.50;;;6.50;;
61460;SDS011;47325;50.506;4.472;2022-11-20T09:34:41;10.60;;;6.00;;
61460;SDS011;47325;50.506;4.472;2022-11-20T09:40:26;9.70;;;5.90;;
61460;SDS011;47325;50.506;4.472;2022-11-20T09:46:12;10.20;;;5.40;;
61460;SDS011;47325;50.506;4.472;2022-11-20T09:51:57;8.50;;;5.10;;
61460;SDS011;47325;50.506;4.472;2022-11-20T09:57:41;8.80;;;5.20;;
61460;SDS011;47325;50.506;4.472;2022-11-20T10:03:27;9.90;;;5.00;;
61460;SDS011;47325;50.506;4.472;2022-11-20T10:09:18;8.10;;;4.70;;
61460;SDS011;47325;50.506;4.472;2022-11-20T10:15:10;6.80;;;4.10;;
61460;SDS011;47325;50.506;4.472;2022-11-20T10:20:56;7.10;;;4.20;;
61460;SDS011;47325;50.506;4.472;2022-11-20T10:26:45;7.90;;;3.90;;
61460;SDS011;47325;50.506;4.472;2022-11-20T10:32:33;6.60;;;3.60;;
61460;SDS011;47325;50.506;4.472;2022-11-20T10:38:19;7.40;;;3.60;;
61460;SDS011;47325;50.506;4.472;2022-11-20T10:44:08;6.50;;;3.60;;
61460;SDS011;47325;50.506;4.472;2022-11-20T10:49:52;6.30;;;3.30;;
61460;SDS011;47325;50.506;4.472;2022-11-20T10:55:39;6.70;;;3.10;;
61460;SDS011;47325;50.506;4.472;2022-11-20T11:01:24;6.20;;;3.20;;
61460;SDS011;47325;50.506;4.472;2022-11-20T11:07:10;6.20;;;3.00;;
61460;SDS011;47325;50.506;4.472;2022-11-20T11:12:54;5.90;;;3.10;;
61460;SDS011;47325;50.506;4.472;2022-11-20T11:18:37;4.60;;;2.50;;
61460;SDS011;47325;50.506;4.472;2022-11-20T11:24:23;4.90;;;2.70;;
61460;SDS011;47325;50.506;4.472;2022-11-20T11:30:23;6.70;;;2.50;;
61460;SDS011;47325;50.506;4.472;2022-11-20T11:36:15;5.60;;;2.40;;
61460;SDS011;47325;50.506;4.472;2022-11-20T11:41:53;3.20;;;2.10;;
61460;SDS011;47325;50.506;4.472;2022-11-20T11:47:44;4.60;;;2.30;;
61460;SDS011;47325;50.506;4.472;2022-11-20T11:53:26;5.40;;;2.80;;
61460;SDS011;47325;50.506;4.472;2022-11-20T11:59:11;4.30;;;2.40;;
61460;SDS011;47325;50.506;4.472;2022-11-20T12:04:57;5.40;;;2.50;;
61460;SDS011;47325;50.506;4.472;2022-11-20T12:10:45;6.20;;;2.70;;
61460;SDS011;47325;50.506;4.472;2022-11-20T12:16:30;4.60;;;2.40;;
61460;SDS011;47325;50.506;4.472;2022-11-20T12:22:18;5.60;;;2.50;;
61460;SDS011;47325;50.506;4.472;2022-11-20T12:28:20;4.10;;;2.20;;
61460;SDS011;47325;50.506;4.472;2022-11-20T12:34:10;4.90;;;2.50;;
61460;SDS011;47325;50.506;4.472;2022-11-20T12:39:56;4.90;;;2.50;;
61460;SDS011;47325;50.506;4.472;2022-11-20T12:45:59;6.20;;;2.70;;
61460;SDS011;47325;50.506;4.472;2022-11-20T12:51:52;4.70;;;2.40;;
61460;SDS011;47325;50.506;4.472;2022-11-20T12:57:41;6.50;;;2.50;;
61460;SDS011;47325;50.506;4.472;2022-11-20T13:03:41;5.40;;;2.90;;
61460;SDS011;47325;50.506;4.472;2022-11-20T13:09:26;7.00;;;2.60;;
61460;SDS011;47325;50.506;4.472;2022-11-20T13:15:14;4.50;;;2.60;;
61460;SDS011;47325;50.506;4.472;2022-11-20T13:20:58;5.30;;;2.50;;
61460;SDS011;47325;50.506;4.472;2022-11-20T13:26:41;4.10;;;2.40;;
61460;SDS011;47325;50.506;4.472;2022-11-20T13:32:24;4.70;;;2.50;;
61460;SDS011;47325;50.506;4.472;2022-11-20T13:38:09;5.70;;;2.40;;
61460;SDS011;47325;50.506;4.472;2022-11-20T13:43:53;3.80;;;2.20;;
61460;SDS011;47325;50.506;4.472;2022-11-20T13:49:37;4.20;;;2.30;;
61460;SDS011;47325;50.506;4.472;2022-11-20T13:55:29;4.70;;;2.30;;
61460;SDS011;47325;50.506;4.472;2022-11-20T14:01:17;5.80;;;2.20;;
61460;SDS011;47325;50.506;4.472;2022-11-20T14:07:03;3.60;;;2.00;;
61460;SDS011;47325;50.506;4.472;2022-11-20T14:12:49;4.60;;;2.00;;
61460;SDS011;47325;50.506;4.472;2022-11-20T14:18:32;3.30;;;1.90;;
61460;SDS011;47325;50.506;4.472;2022-11-20T14:24:18;3.70;;;1.90;;
61460;SDS011;47325;50.506;4.472;2022-11-20T14:30:02;2.70;;;1.50;;
61460;SDS011;47325;50.506;4.472;2022-11-20T14:35:47;2.90;;;1.70;;
61460;SDS011;47325;50.506;4.472;2022-11-20T14:41:30;3.90;;;1.70;;
61460;SDS011;47325;50.506;4.472;2022-11-20T14:47:15;2.60;;;1.80;;
61460;SDS011;47325;50.506;4.472;2022-11-20T14:53:00;2.40;;;1.60;;
61460;SDS011;47325;50.506;4.472;2022-11-20T14:58:43;3.30;;;1.50;;
61460;SDS011;47325;50.506;4.472;2022-11-20T15:04:26;2.60;;;1.40;;
61460;SDS011;47325;50.506;4.472;2022-11-20T15:10:11;2.40;;;1.50;;
61460;SDS011;47325;50.506;4.472;2022-11-20T15:15:55;2.50;;;1.40;;
61460;SDS011;47325;50.506;4.472;2022-11-20T15:21:38;2.50;;;1.40;;
61460;SDS011;47325;50.506;4.472;2022-11-20T15:27:21;2.10;;;1.30;;
61460;SDS011;47325;50.506;4.472;2022-11-20T15:33:04;3.60;;;1.40;;
61460;SDS011;47325;50.506;4.472;2022-11-20T15:38:47;2.50;;;1.20;;
61460;SDS011;47325;50.506;4.472;2022-11-20T15:44:31;3.50;;;1.60;;
61460;SDS011;47325;50.506;4.472;2022-11-20T15:50:14;3.30;;;1.50;;
61460;SDS011;47325;50.506;4.472;2022-11-20T15:56:00;3.40;;;1.50;;
61460;SDS011;47325;50.506;4.472;2022-11-20T16:01:43;2.80;;;1.30;;
61460;SDS011;47325;50.506;4.472;2022-11-20T16:07:26;4.40;;;1.70;;
61460;SDS011;47325;50.506;4.472;2022-11-20T16:13:14;6.40;;;1.70;;
61460;SDS011;47325;50.506;4.472;2022-11-20T16:18:57;3.70;;;1.70;;
61460;SDS011;47325;50.506;4.472;2022-11-20T16:24:41;5.40;;;1.70;;
61460;SDS011;47325;50.506;4.472;2022-11-20T16:30:24;4.10;;;1.90;;
61460;SDS011;47325;50.506;4.472;2022-11-20T16:36:10;4.30;;;1.80;;
61460;SDS011;47325;50.506;4.472;2022-11-20T16:41:53;4.10;;;1.70;;
61460;SDS011;47325;50.506;4.472;2022-11-20T16:47:36;4.10;;;1.60;;
61460;SDS011;47325;50.506;4.472;2022-11-20T16:53:20;4.90;;;1.80;;
61460;SDS011;47325;50.506;4.472;2022-11-20T16:59:03;4.40;;;1.90;;
61460;SDS011;47325;50.506;4.472;2022-11-20T17:04:46;4.40;;;1.90;;
61460;SDS011;47325;50.506;4.472;2022-11-20T17:10:29;4.10;;;1.70;;
61460;SDS011;47325;50.506;4.472;2022-11-20T17:16:13;4.70;;;1.90;;
61460;SDS011;47325;50.506;4.472;2022-11-20T17:21:57;5.70;;;2.40;;
61460;SDS011;47325;50.506;4.472;2022-11-20T17:27:40;9.70;;;3.00;;
61460;SDS011;47325;50.506;4.472;2022-11-20T17:33:23;5.70;;;1.80;;
61460;SDS011;47325;50.506;4.472;2022-11-20T17:39:06;4.70;;;2.00;;
61460;SDS011;47325;50.506;4.472;2022-11-20T17:44:49;5.00;;;2.10;;
61460;SDS011;47325;50.506;4.472;2022-11-20T17:50:33;5.20;;;2.00;;
61460;SDS011;47325;50.506;4.472;2022-11-20T17:56:15;6.60;;;2.50;;
61460;SDS011;47325;50.506;4.472;2022-11-20T18:01:59;6.10;;;2.00;;
61460;SDS011;47325;50.506;4.472;2022-11-20T18:07:45;5.00;;;2.20;;
61460;SDS011;47325;50.506;4.472;2022-11-20T18:13:28;5.00;;;2.00;;
61460;SDS011;47325;50.506;4.472;2022-11-20T18:19:12;6.30;;;2.10;;
61460;SDS011;47325;50.506;4.472;2022-11-20T18:24:55;8.70;;;2.40;;
61460;SDS011;47325;50.506;4.472;2022-11-20T18:30:38;9.50;;;2.20;;
61460;SDS011;47325;50.506;4.472;2022-11-20T18:36:22;7.70;;;2.20;;
61460;SDS011;47325;50.506;4.472;2022-11-20T18:42:05;6.40;;;2.20;;
61460;SDS011;47325;50.506;4.472;2022-11-20T18:47:48;6.20;;;2.00;;
61460;SDS011;47325;50.506;4.472;2022-11-20T18:53:30;6.00;;;2.20;;
61460;SDS011;47325;50.506;4.472;2022-11-20T18:59:13;6.40;;;2.30;;
61460;SDS011;47325;50.506;4.472;2022-11-20T19:04:58;6.80;;;2.30;;
61460;SDS011;47325;50.506;4.472;2022-11-20T19:10:41;9.70;;;2.30;;
61460;SDS011;47325;50.506;4.472;2022-11-20T19:16:24;8.80;;;2.30;;
61460;SDS011;47325;50.506;4.472;2022-11-20T19:22:07;11.30;;;2.90;;
61460;SDS011;47325;50.506;4.472;2022-11-20T19:27:50;8.10;;;2.40;;
61460;SDS011;47325;50.506;4.472;2022-11-20T19:33:33;8.80;;;2.70;;
61460;SDS011;47325;50.506;4.472;2022-11-20T19:39:16;10.70;;;3.20;;
61460;SDS011;47325;50.506;4.472;2022-11-20T19:44:59;9.90;;;2.70;;
61460;SDS011;47325;50.506;4.472;2022-11-20T19:50:42;10.20;;;3.10;;
61460;SDS011;47325;50.506;4.472;2022-11-20T19:56:26;9.80;;;2.60;;
61460;SDS011;47325;50.506;4.472;2022-11-20T20:02:12;9.30;;;2.70;;
61460;SDS011;47325;50.506;4.472;2022-11-20T20:07:57;9.30;;;2.80;;
61460;SDS011;47325;50.506;4.472;2022-11-20T20:13:40;7.10;;;2.70;;
61460;SDS011;47325;50.506;4.472;2022-11-20T20:19:23;9.60;;;2.90;;
61460;SDS011;47325;50.506;4.472;2022-11-20T20:25:08;6.90;;;2.70;;
61460;SDS011;47325;50.506;4.472;2022-11-20T20:30:52;9.90;;;3.00;;
61460;SDS011;47325;50.506;4.472;2022-11-20T20:36:36;10.20;;;2.90;;
61460;SDS011;47325;50.506;4.472;2022-11-20T20:42:19;8.50;;;2.60;;
61460;SDS011;47325;50.506;4.472;2022-11-20T20:48:02;8.90;;;2.40;;
61460;SDS011;47325;50.506;4.472;2022-11-20T20:53:46;6.60;;;2.30;;
61460;SDS011;47325;50.506;4.472;2022-11-20T20:59:29;9.80;;;3.00;;
61460;SDS011;47325;50.506;4.472;2022-11-20T21:05:12;8.30;;;2.80;;
61460;SDS011;47325;50.506;4.472;2022-11-20T21:11:00;9.80;;;3.20;;
61460;SDS011;47325;50.506;4.472;2022-11-20T21:16:44;10.20;;;2.80;;
61460;SDS011;47325;50.506;4.472;2022-11-20T21:22:28;9.60;;;2.50;;
61460;SDS011;47325;50.506;4.472;2022-11-20T21:28:20;7.80;;;2.30;;
61460;SDS011;47325;50.506;4.472;2022-11-20T21:34:04;9.10;;;2.60;;
61460;SDS011;47325;50.506;4.472;2022-11-20T21:39:46;9.20;;;2.80;;
61460;SDS011;47325;50.506;4.472;2022-11-20T21:45:30;7.50;;;2.30;;
61460;SDS011;47325;50.506;4.472;2022-11-20T21:51:13;14.10;;;2.50;;
61460;SDS011;47325;50.506;4.472;2022-11-20T21:56:56;9.00;;;2.40;;
61460;SDS011;47325;50.506;4.472;2022-11-20T22:02:40;8.90;;;2.20;;
61460;SDS011;47325;50.506;4.472;2022-11-20T22:08:23;9.40;;;2.60;;
61460;SDS011;47325;50.506;4.472;2022-11-20T22:14:07;7.20;;;2.50;;
61460;SDS011;47325;50.506;4.472;2022-11-20T22:19:51;6.70;;;2.40;;
61460;SDS011;47325;50.506;4.472;2022-11-20T22:25:33;10.40;;;2.80;;
61460;SDS011;47325;50.506;4.472;2022-11-20T22:31:17;6.90;;;2.20;;
61460;SDS011;47325;50.506;4.472;2022-11-20T22:37:00;9.60;;;2.20;;
61460;SDS011;47325;50.506;4.472;2022-11-20T22:42:46;6.30;;;2.20;;
61460;SDS011;47325;50.506;4.472;2022-11-20T22:48:29;7.10;;;2.30;;
61460;SDS011;47325;50.506;4.472;2022-11-20T22:54:13;9.20;;;2.50;;
61460;SDS011;47325;50.506;4.472;2022-11-20T22:59:56;10.00;;;2.90;;
61460;SDS011;47325;50.506;4.472;2022-11-20T23:05:39;8.20;;;2.70;;
61460;SDS011;47325;50.506;4.472;2022-11-20T23:11:23;8.40;;;2.50;;
61460;SDS011;47325;50.506;4.472;2022-11-20T23:17:07;15.00;;;3.00;;
61460;SDS011;47325;50.506;4.472;2022-11-20T23:22:50;8.30;;;2.90;;
61460;SDS011;47325;50.506;4.472;2022-11-20T23:28:34;11.60;;;3.50;;
61460;SDS011;47325;50.506;4.472;2022-11-20T23:34:17;18.40;;;4.20;;
61460;SDS011;47325;50.506;4.472;2022-11-20T23:40:00;9.50;;;3.30;;
61460;SDS011;47325;50.506;4.472;2022-11-20T23:45:44;8.70;;;3.00;;
61460;SDS011;47325;50.506;4.472;2022-11-20T23:51:27;9.40;;;2.80;;
61460;SDS011;47325;50.506;4.472;2022-11-20T23:57:10;8.10;;;2.80;;
